createdAt,value
2017-07-29T00:00:54.149Z,1009.2
2017-07-29T00:02:04.670Z,1009.22
2017-07-29T00:03:14.951Z,1009.17
2017-07-29T00:04:25.221Z,1009.16
2017-07-29T00:05:35.502Z,1009.17
2017-07-29T00:06:45.465Z,1009.21
2017-07-29T00:07:55.994Z,1009.2
2017-07-29T00:09:06.274Z,1009.23
2017-07-29T00:10:16.251Z,1009.23
2017-07-29T00:11:26.213Z,1009.23
2017-07-29T00:12:36.490Z,1009.21
2017-07-29T00:13:47.019Z,1009.21
2017-07-29T00:14:57.348Z,1009.2
2017-07-29T00:16:07.317Z,1009.21
2017-07-29T00:17:17.587Z,1009.24
2017-07-29T00:18:27.868Z,1009.2
2017-07-29T00:19:38.378Z,1009.22
2017-07-29T00:20:48.645Z,1009.2
2017-07-29T00:21:58.937Z,1009.26
2017-07-29T00:23:08.897Z,1009.3
2017-07-29T00:24:18.859Z,1009.34
2017-07-29T00:25:29.053Z,1009.31
2017-07-29T00:26:39.340Z,1009.33
2017-07-29T00:27:49.305Z,1009.34
2017-07-29T00:28:59.591Z,1009.28
2017-07-29T00:30:09.544Z,1009.33
2017-07-29T00:31:19.757Z,1009.33
2017-07-29T00:32:30.039Z,1009.32
2017-07-29T00:33:40.330Z,1009.34
2017-07-29T00:34:50.600Z,1009.32
2017-07-29T00:36:00.558Z,1009.3
2017-07-29T00:37:11.093Z,1009.32
2017-07-29T00:38:21.060Z,1009.27
2017-07-29T00:39:31.327Z,1009.23
2017-07-29T00:40:40.974Z,1009.23
2017-07-29T00:41:50.944Z,1009.18
2017-07-29T00:43:01.157Z,1009.2
2017-07-29T00:44:11.428Z,1009.18
2017-07-29T00:45:21.705Z,1009.16
2017-07-29T00:46:31.971Z,1009.14
2017-07-29T00:47:42.245Z,1009.12
2017-07-29T00:48:52.450Z,1009.14
2017-07-29T00:50:02.741Z,1009.12
2017-07-29T00:51:13.014Z,1009.14
2017-07-29T00:52:23.286Z,1009.11
2017-07-29T00:53:33.565Z,1009.15
2017-07-29T00:54:43.794Z,1009.15
2017-07-29T00:55:54.068Z,1009.21
2017-07-29T00:57:04.344Z,1009.18
2017-07-29T00:58:14.629Z,1009.24
2017-07-29T00:59:24.573Z,1009.17
2017-07-29T01:00:34.775Z,1009.2
2017-07-29T01:01:44.728Z,1009.21
2017-07-29T01:02:54.684Z,1009.22
2017-07-29T01:04:04.955Z,1009.22
2017-07-29T01:05:14.922Z,1009.21
2017-07-29T01:06:25.132Z,1009.25
2017-07-29T01:07:35.418Z,1009.23
2017-07-29T01:08:45.400Z,1009.23
2017-07-29T01:09:55.367Z,1009.24
2017-07-29T01:11:05.624Z,1009.24
2017-07-29T01:12:16.153Z,1009.2
2017-07-29T01:13:26.424Z,1009.2
2017-07-29T01:14:36.714Z,1009.19
2017-07-29T01:15:46.663Z,1009.15
2017-07-29T01:16:56.318Z,1009.17
2017-07-29T01:18:06.842Z,1009.12
2017-07-29T01:19:16.502Z,1009.18
2017-07-29T01:20:26.791Z,1009.15
2017-07-29T01:21:37.059Z,1009.15
2017-07-29T01:22:47.355Z,1009.14
2017-07-29T01:23:57.890Z,1009.2
2017-07-29T01:25:08.192Z,1009.19
2017-07-29T01:26:18.495Z,1009.21
2017-07-29T01:27:28.764Z,1009.21
2017-07-29T01:28:39.044Z,1009.22
2017-07-29T01:29:49.571Z,1009.23
2017-07-29T01:30:59.542Z,1009.19
2017-07-29T01:32:09.513Z,1009.22
2017-07-29T01:33:19.496Z,1009.24
2017-07-29T01:34:29.450Z,1009.22
2017-07-29T01:35:39.957Z,1009.22
2017-07-29T01:36:50.235Z,1009.22
2017-07-29T01:38:00.216Z,1009.19
2017-07-29T01:39:10.494Z,1009.19
2017-07-29T01:40:20.788Z,1009.22
2017-07-29T01:41:31.008Z,1009.18
2017-07-29T01:42:40.986Z,1009.18
2017-07-29T01:43:50.961Z,1009.16
2017-07-29T01:45:00.931Z,1009.16
2017-07-29T01:46:11.198Z,1009.13
2017-07-29T01:47:21.722Z,1009.17
2017-07-29T01:48:32.002Z,1009.18
2017-07-29T01:49:42.276Z,1009.11
2017-07-29T01:50:51.931Z,1009.09
2017-07-29T01:52:02.221Z,1009.09
2017-07-29T01:53:12.784Z,1009.1
2017-07-29T01:54:23.083Z,1009.07
2017-07-29T01:55:32.750Z,1009.11
2017-07-29T01:56:43.035Z,1009.1
2017-07-29T01:57:53.309Z,1009.11
2017-07-29T01:59:03.528Z,1009.07
2017-07-29T02:00:13.489Z,1009.07
2017-07-29T02:01:23.452Z,1009.05
2017-07-29T02:02:33.708Z,1009
2017-07-29T02:03:43.676Z,1008.98
2017-07-29T02:04:54.184Z,1008.95
2017-07-29T02:06:04.451Z,1008.96
2017-07-29T02:07:14.755Z,1008.96
2017-07-29T02:08:24.728Z,1009
2017-07-29T02:09:34.685Z,1008.99
2017-07-29T02:10:45.217Z,1009.02
2017-07-29T02:11:55.190Z,1008.98
2017-07-29T02:13:05.173Z,1008.96
2017-07-29T02:14:14.824Z,1009.02
2017-07-29T02:15:25.103Z,1009.01
2017-07-29T02:16:35.626Z,1009.03
2017-07-29T02:17:45.293Z,1009.05
2017-07-29T02:18:55.574Z,1009.04
2017-07-29T02:20:05.525Z,1009.01
2017-07-29T02:21:15.809Z,1009
2017-07-29T02:22:26.330Z,1008.99
2017-07-29T02:23:36.290Z,1009.01
2017-07-29T02:24:46.560Z,1008.99
2017-07-29T02:25:56.830Z,1009.01
2017-07-29T02:27:07.119Z,1009.07
2017-07-29T02:28:17.643Z,1009.05
2017-07-29T02:29:27.612Z,1009.05
2017-07-29T02:30:37.895Z,1009.07
2017-07-29T02:31:47.541Z,1009.02
2017-07-29T02:32:57.834Z,1009.04
2017-07-29T02:34:08.372Z,1009.04
2017-07-29T02:35:18.652Z,1009.02
2017-07-29T02:36:28.331Z,1009.03
2017-07-29T02:37:38.298Z,1009.06
2017-07-29T02:38:48.263Z,1009.06
2017-07-29T02:39:58.464Z,1009.06
2017-07-29T02:41:08.430Z,1009.03
2017-07-29T02:42:18.706Z,1009.03
2017-07-29T02:43:28.368Z,1008.99
2017-07-29T02:44:38.315Z,1008.97
2017-07-29T02:45:48.854Z,1008.97
2017-07-29T02:46:58.830Z,1008.88
2017-07-29T02:48:09.109Z,1008.87
2017-07-29T02:49:19.398Z,1008.9
2017-07-29T02:50:29.675Z,1008.91
2017-07-29T02:51:39.879Z,1008.97
2017-07-29T02:52:49.858Z,1008.97
2017-07-29T02:53:59.832Z,1009.03
2017-07-29T02:55:10.117Z,1009.04
2017-07-29T02:56:20.095Z,1009.06
2017-07-29T02:57:30.317Z,1009.06
2017-07-29T02:58:40.571Z,1009.09
2017-07-29T02:59:50.535Z,1009.11
2017-07-29T03:01:00.825Z,1009.09
2017-07-29T03:02:10.791Z,1009.08
2017-07-29T03:03:21.306Z,1009.06
2017-07-29T03:04:30.966Z,1009.06
2017-07-29T03:05:41.233Z,1008.96
2017-07-29T03:06:51.523Z,1008.95
2017-07-29T03:08:01.811Z,1008.92
2017-07-29T03:09:12.339Z,1008.96
2017-07-29T03:10:22.616Z,1008.99
2017-07-29T03:11:32.891Z,1009.08
2017-07-29T03:12:43.164Z,1009.07
2017-07-29T03:13:53.454Z,1009.05
2017-07-29T03:15:03.670Z,1009.05
2017-07-29T03:16:13.633Z,1009.08
2017-07-29T03:17:23.913Z,1009.04
2017-07-29T03:18:33.883Z,1009.07
2017-07-29T03:19:44.148Z,1009.03
2017-07-29T03:20:54.060Z,1009.04
2017-07-29T03:22:04.315Z,1009.02
2017-07-29T03:23:14.277Z,1009.03
2017-07-29T03:24:24.575Z,1009.03
2017-07-29T03:25:34.850Z,1009.04
2017-07-29T03:26:45.073Z,1009.04
2017-07-29T03:27:55.036Z,1009.06
2017-07-29T03:29:05.307Z,1008.99
2017-07-29T03:30:15.586Z,1009.03
2017-07-29T03:31:25.862Z,1009.07
2017-07-29T03:32:35.782Z,1009.06
2017-07-29T03:33:45.735Z,1009.03
2017-07-29T03:34:56.014Z,1009.05
2017-07-29T03:36:06.303Z,1009.02
2017-07-29T03:37:16.584Z,1009.02
2017-07-29T03:38:26.796Z,1009.01
2017-07-29T03:39:37.062Z,1009.02
2017-07-29T03:40:47.326Z,1009.03
2017-07-29T03:41:57.589Z,1009.03
2017-07-29T03:43:07.877Z,1009
2017-07-29T03:44:18.394Z,1009.04
2017-07-29T03:45:28.675Z,1009.03
2017-07-29T03:46:38.949Z,1009.06
2017-07-29T03:47:49.243Z,1009.05
2017-07-29T03:48:59.509Z,1009.04
2017-07-29T03:50:09.717Z,1009.06
2017-07-29T03:51:19.696Z,1009.06
2017-07-29T03:52:29.969Z,1009.09
2017-07-29T03:53:40.246Z,1009.12
2017-07-29T03:54:50.529Z,1009.1
2017-07-29T03:56:00.741Z,1009.15
2017-07-29T03:57:10.399Z,1009.14
2017-07-29T03:58:20.370Z,1009.13
2017-07-29T03:59:30.334Z,1009.14
2017-07-29T04:00:40.308Z,1009.11
2017-07-29T04:01:50.515Z,1009.14
2017-07-29T04:03:00.473Z,1009.17
2017-07-29T04:04:10.442Z,1009.15
2017-07-29T04:05:20.396Z,1009.07
2017-07-29T04:06:30.666Z,1009.08
2017-07-29T04:07:41.200Z,1009.06
2017-07-29T04:08:51.480Z,1009.05
2017-07-29T04:10:01.748Z,1009.02
2017-07-29T04:11:12.059Z,1009
2017-07-29T04:12:22.351Z,1008.98
2017-07-29T04:13:32.887Z,1008.94
2017-07-29T04:14:43.161Z,1008.97
2017-07-29T04:15:53.447Z,1008.96
2017-07-29T04:17:03.413Z,1008.94
2017-07-29T04:18:13.067Z,1008.97
2017-07-29T04:19:23.585Z,1008.94
2017-07-29T04:20:33.553Z,1008.97
2017-07-29T04:21:43.519Z,1008.93
2017-07-29T04:22:53.184Z,1008.93
2017-07-29T04:24:03.481Z,1008.91
2017-07-29T04:25:14.006Z,1008.85
2017-07-29T04:26:23.672Z,1008.87
2017-07-29T04:27:33.953Z,1008.8
2017-07-29T04:28:44.223Z,1008.84
2017-07-29T04:29:54.500Z,1008.79
2017-07-29T04:31:05.017Z,1008.84
2017-07-29T04:32:15.308Z,1008.77
2017-07-29T04:33:25.582Z,1008.75
2017-07-29T04:34:35.858Z,1008.75
2017-07-29T04:35:45.819Z,1008.8
2017-07-29T04:36:56.348Z,1008.75
2017-07-29T04:38:06.623Z,1008.79
2017-07-29T04:39:16.614Z,1008.88
2017-07-29T04:40:26.883Z,1008.85
2017-07-29T04:41:37.153Z,1008.86
2017-07-29T04:42:47.674Z,1008.78
2017-07-29T04:43:57.642Z,1008.74
2017-07-29T04:45:07.287Z,1008.72
2017-07-29T04:46:17.260Z,1008.73
2017-07-29T04:47:27.545Z,1008.7
2017-07-29T04:48:38.073Z,1008.79
2017-07-29T04:49:48.074Z,1008.83
2017-07-29T04:50:57.733Z,1008.87
2017-07-29T04:52:07.393Z,1008.87
2017-07-29T04:53:17.672Z,1008.93
2017-07-29T04:54:27.896Z,1008.98
2017-07-29T04:55:38.162Z,1009.03
2017-07-29T04:56:48.447Z,1009.09
2017-07-29T04:57:58.739Z,1009.11
2017-07-29T04:59:09.023Z,1009.15
2017-07-29T05:00:19.266Z,1009.19
2017-07-29T05:01:29.541Z,1009.21
2017-07-29T05:02:39.822Z,1009.27
2017-07-29T05:03:50.091Z,1009.25
2017-07-29T05:04:59.748Z,1009.21
2017-07-29T05:06:10.284Z,1009.17
2017-07-29T05:07:20.240Z,1009.19
2017-07-29T05:08:30.510Z,1009.19
2017-07-29T05:09:40.792Z,1009.19
2017-07-29T05:10:50.753Z,1009.18
2017-07-29T05:12:01.326Z,1009.24
2017-07-29T05:13:11.608Z,1009.19
2017-07-29T05:14:21.589Z,1009.21
2017-07-29T05:15:30.923Z,1009.22
2017-07-29T05:16:40.888Z,1009.23
2017-07-29T05:17:51.406Z,1009.19
2017-07-29T05:19:01.365Z,1009.18
2017-07-29T05:20:11.321Z,1009.2
2017-07-29T05:21:21.594Z,1009.2
2017-07-29T05:22:31.884Z,1009.17
2017-07-29T05:23:42.089Z,1009.2
2017-07-29T05:24:52.357Z,1009.22
2017-07-29T05:26:02.320Z,1009.22
2017-07-29T05:27:12.596Z,1009.21
2017-07-29T05:28:22.567Z,1009.22
2017-07-29T05:29:32.154Z,1009.21
2017-07-29T05:30:42.422Z,1009.26
2017-07-29T05:31:52.688Z,1009.21
2017-07-29T05:33:02.356Z,1009.16
2017-07-29T05:34:12.639Z,1009.19
2017-07-29T05:35:23.190Z,1009.17
2017-07-29T05:36:33.472Z,1009.14
2017-07-29T05:37:43.747Z,1009.15
2017-07-29T05:38:54.024Z,1009.14
2017-07-29T05:40:04.324Z,1009.15
2017-07-29T05:41:14.859Z,1009.08
2017-07-29T05:42:24.522Z,1009.07
2017-07-29T05:43:34.819Z,1009.03
2017-07-29T05:44:44.140Z,1009.04
2017-07-29T05:45:54.406Z,1009.05
2017-07-29T05:47:04.930Z,1009.07
2017-07-29T05:48:14.597Z,1009.07
2017-07-29T05:49:24.878Z,1009.08
2017-07-29T05:50:34.834Z,1009.07
2017-07-29T05:51:45.103Z,1009.11
2017-07-29T05:52:55.638Z,1009.1
2017-07-29T05:54:05.282Z,1009.12
2017-07-29T05:55:14.955Z,1009.15
2017-07-29T05:56:25.234Z,1009.17
2017-07-29T05:57:35.511Z,1009.1
2017-07-29T05:58:45.728Z,1009.12
2017-07-29T05:59:56.026Z,1009.08
2017-07-29T06:01:06.322Z,1009.07
2017-07-29T06:02:16.602Z,1009.05
2017-07-29T06:03:26.573Z,1009.02
2017-07-29T06:04:36.787Z,1008.98
2017-07-29T06:05:46.760Z,1008.89
2017-07-29T06:06:57.039Z,1008.83
2017-07-29T06:08:07.324Z,1008.81
2017-07-29T06:09:17.843Z,1008.78
2017-07-29T06:10:28.375Z,1008.79
2017-07-29T06:11:38.333Z,1008.8
2017-07-29T06:12:48.606Z,1008.85
2017-07-29T06:13:58.578Z,1008.81
2017-07-29T06:15:08.859Z,1008.88
2017-07-29T06:16:19.390Z,1008.92
2017-07-29T06:17:29.671Z,1008.98
2017-07-29T06:18:39.951Z,1009.04
2017-07-29T06:19:49.920Z,1009.07
2017-07-29T06:21:00.204Z,1009.1
2017-07-29T06:22:14.877Z,1009.14
2017-07-29T06:23:24.836Z,1009.14
2017-07-29T06:24:35.119Z,1009.14
2017-07-29T06:25:45.089Z,1009.16
2017-07-29T06:26:55.369Z,1009.16
2017-07-29T06:28:05.907Z,1009.22
2017-07-29T06:29:16.197Z,1009.22
2017-07-29T06:30:26.170Z,1009.23
2017-07-29T06:31:35.831Z,1009.2
2017-07-29T06:32:45.817Z,1009.14
2017-07-29T06:33:56.397Z,1009.14
2017-07-29T06:35:06.690Z,1009.07
2017-07-29T06:36:16.657Z,1009.03
2017-07-29T06:37:26.942Z,1009
2017-07-29T06:38:37.234Z,1009.05
2017-07-29T06:39:47.448Z,1009.07
2017-07-29T06:40:57.730Z,1009.02
2017-07-29T06:42:08.006Z,1009.09
2017-07-29T06:43:17.991Z,1009.06
2017-07-29T06:44:28.278Z,1009.18
2017-07-29T06:45:38.504Z,1009.14
2017-07-29T06:46:47.880Z,1009.13
2017-07-29T06:47:58.166Z,1009.1
2017-07-29T06:49:08.442Z,1009.09
2017-07-29T06:50:18.392Z,1009.03
2017-07-29T06:51:28.611Z,1008.99
2017-07-29T06:52:38.279Z,1009.03
2017-07-29T06:53:48.556Z,1009.01
2017-07-29T06:54:58.843Z,1008.96
2017-07-29T06:56:08.810Z,1008.95
2017-07-29T06:57:19.333Z,1009
2017-07-29T06:58:28.993Z,1009.03
2017-07-29T06:59:38.962Z,1009.01
2017-07-29T07:00:49.241Z,1009.03
2017-07-29T07:01:59.528Z,1009.01
2017-07-29T07:03:09.780Z,1009
2017-07-29T07:04:20.058Z,1009.04
2017-07-29T07:05:30.018Z,1009.02
2017-07-29T07:06:39.993Z,1009.01
2017-07-29T07:07:49.982Z,1008.95
2017-07-29T07:09:00.198Z,1008.99
2017-07-29T07:10:10.468Z,1009.02
2017-07-29T07:11:20.735Z,1009
2017-07-29T07:12:31.014Z,1009.01
2017-07-29T07:13:41.293Z,1009.02
2017-07-29T07:14:51.513Z,1009.05
2017-07-29T07:16:01.793Z,1009.06
2017-07-29T07:17:11.770Z,1009.09
2017-07-29T07:18:22.037Z,1009.09
2017-07-29T07:19:32.341Z,1009.1
2017-07-29T07:20:42.876Z,1009.11
2017-07-29T07:21:52.859Z,1009.07
2017-07-29T07:23:03.158Z,1009.02
2017-07-29T07:24:13.122Z,1008.99
2017-07-29T07:25:23.081Z,1008.95
2017-07-29T07:26:33.346Z,1008.95
2017-07-29T07:27:43.318Z,1008.94
2017-07-29T07:28:53.599Z,1008.93
2017-07-29T07:30:03.871Z,1008.95
2017-07-29T07:31:14.139Z,1008.94
2017-07-29T07:32:24.360Z,1008.94
2017-07-29T07:33:34.631Z,1008.95
2017-07-29T07:34:44.916Z,1008.98
2017-07-29T07:35:55.222Z,1008.97
2017-07-29T07:37:05.190Z,1008.93
2017-07-29T07:38:15.721Z,1008.94
2017-07-29T07:39:26.016Z,1008.93
2017-07-29T07:40:36.291Z,1008.95
2017-07-29T07:41:46.576Z,1008.97
2017-07-29T07:42:56.547Z,1008.98
2017-07-29T07:44:06.760Z,1008.95
2017-07-29T07:45:17.046Z,1009.02
2017-07-29T07:46:27.335Z,1009.04
2017-07-29T07:47:37.625Z,1009.06
2017-07-29T07:48:47.597Z,1009.1
2017-07-29T07:49:57.500Z,1009.07
2017-07-29T07:51:07.783Z,1009.06
2017-07-29T07:52:18.057Z,1008.96
2017-07-29T07:53:28.335Z,1008.97
2017-07-29T07:54:38.319Z,1009
2017-07-29T07:55:48.842Z,1008.99
2017-07-29T07:56:58.824Z,1009
2017-07-29T07:58:09.101Z,1009.01
2017-07-29T07:59:18.763Z,1008.97
2017-07-29T08:00:29.053Z,1008.95
2017-07-29T08:01:39.640Z,1008.92
2017-07-29T08:02:49.914Z,1008.96
2017-07-29T08:04:00.196Z,1008.91
2017-07-29T08:05:10.482Z,1008.91
2017-07-29T08:06:20.758Z,1008.86
2017-07-29T08:07:31.299Z,1008.8
2017-07-29T08:08:41.260Z,1008.8
2017-07-29T08:09:51.215Z,1008.75
2017-07-29T08:11:01.475Z,1008.75
2017-07-29T08:12:11.753Z,1008.71
2017-07-29T08:13:21.964Z,1008.71
2017-07-29T08:14:32.247Z,1008.73
2017-07-29T08:15:42.210Z,1008.71
2017-07-29T08:16:52.483Z,1008.74
2017-07-29T08:18:02.470Z,1008.73
2017-07-29T08:19:12.994Z,1008.68
2017-07-29T08:20:22.651Z,1008.63
2017-07-29T08:21:32.619Z,1008.63
2017-07-29T08:22:42.902Z,1008.65
2017-07-29T08:23:53.229Z,1008.59
2017-07-29T08:25:03.768Z,1008.61
2017-07-29T08:26:14.042Z,1008.63
2017-07-29T08:27:24.055Z,1008.6
2017-07-29T08:28:34.330Z,1008.52
2017-07-29T08:29:44.622Z,1008.49
2017-07-29T08:30:55.151Z,1008.45
2017-07-29T08:32:05.143Z,1008.51
2017-07-29T08:33:15.426Z,1008.36
2017-07-29T08:34:25.723Z,1008.44
2017-07-29T08:35:35.696Z,1008.48
2017-07-29T08:36:45.967Z,1008.57
2017-07-29T08:37:56.254Z,1008.57
2017-07-29T08:39:06.540Z,1008.5
2017-07-29T08:40:16.542Z,1008.47
2017-07-29T08:41:26.832Z,1008.53
2017-07-29T08:42:37.357Z,1008.54
2017-07-29T08:43:47.303Z,1008.55
2017-07-29T08:44:57.592Z,1008.45
2017-07-29T08:46:07.580Z,1008.54
2017-07-29T08:47:17.865Z,1008.51
2017-07-29T08:48:27.780Z,1008.55
2017-07-29T08:49:38.055Z,1008.27
2017-07-29T08:50:48.032Z,1008.63
2017-07-29T08:51:58.323Z,1008.56
2017-07-29T08:53:08.298Z,1008.52
2017-07-29T08:54:18.834Z,1008.56
2017-07-29T08:55:28.804Z,1008.55
2017-07-29T08:56:38.776Z,1008.57
2017-07-29T08:57:48.742Z,1008.69
2017-07-29T08:58:58.718Z,1008.67
2017-07-29T09:00:09.246Z,1008.57
2017-07-29T09:01:19.227Z,1008.69
2017-07-29T09:02:29.205Z,1008.65
2017-07-29T09:03:39.190Z,1008.77
2017-07-29T09:04:49.188Z,1008.63
2017-07-29T09:05:59.725Z,1008.73
2017-07-29T09:07:10.017Z,1008.61
2017-07-29T09:08:19.997Z,1008.51
2017-07-29T09:09:29.963Z,1008.53
2017-07-29T09:10:40.251Z,1008.61
2017-07-29T09:11:50.808Z,1008.59
2017-07-29T09:13:00.776Z,1008.6
2017-07-29T09:14:10.766Z,1008.49
2017-07-29T09:15:20.754Z,1008.53
2017-07-29T09:16:30.729Z,1008.45
2017-07-29T09:17:40.956Z,1008.56
2017-07-29T09:18:51.221Z,1008.56
2017-07-29T09:20:01.499Z,1008.56
2017-07-29T09:21:11.471Z,1008.63
2017-07-29T09:22:21.755Z,1008.72
2017-07-29T09:23:32.329Z,1008.71
2017-07-29T09:24:42.285Z,1008.63
2017-07-29T09:25:52.562Z,1008.65
2017-07-29T09:27:02.565Z,1008.71
2017-07-29T09:28:12.533Z,1008.65
2017-07-29T09:29:23.098Z,1008.6
2017-07-29T09:30:33.079Z,1008.55
2017-07-29T09:31:43.075Z,1008.47
2017-07-29T09:32:53.372Z,1008.69
2017-07-29T09:34:03.654Z,1008.67
2017-07-29T09:35:14.212Z,1008.61
2017-07-29T09:36:24.484Z,1008.63
2017-07-29T09:37:34.464Z,1008.69
2017-07-29T09:38:44.749Z,1008.61
2017-07-29T09:39:55.054Z,1008.76
2017-07-29T09:41:05.280Z,1008.67
2017-07-29T09:42:15.277Z,1008.64
2017-07-29T09:43:24.931Z,1008.68
2017-07-29T09:44:35.239Z,1008.74
2017-07-29T09:45:45.524Z,1008.73
2017-07-29T09:46:55.760Z,1008.58
2017-07-29T09:48:06.056Z,1008.6
2017-07-29T09:49:16.051Z,1008.6
2017-07-29T09:50:26.357Z,1008.66
2017-07-29T09:51:36.342Z,1008.65
2017-07-29T09:52:46.947Z,1008.66
2017-07-29T09:53:57.228Z,1008.62
2017-07-29T09:55:07.571Z,1008.57
2017-07-29T09:56:17.875Z,1008.55
2017-07-29T09:57:28.155Z,1008.51
2017-07-29T09:58:38.685Z,1008.56
2017-07-29T09:59:48.685Z,1008.52
2017-07-29T10:00:58.977Z,1008.52
2017-07-29T10:02:08.963Z,1008.49
2017-07-29T10:03:18.957Z,1008.53
2017-07-29T10:04:29.187Z,1008.49
2017-07-29T10:05:39.479Z,1008.59
2017-07-29T10:06:49.447Z,1008.62
2017-07-29T10:07:59.749Z,1008.64
2017-07-29T10:09:10.060Z,1008.44
2017-07-29T10:10:20.293Z,1008.38
2017-07-29T10:11:30.582Z,1008.48
2017-07-29T10:12:40.882Z,1008.44
2017-07-29T10:13:50.869Z,1008.32
2017-07-29T10:15:01.169Z,1008.46
2017-07-29T10:16:11.108Z,1008.36
2017-07-29T10:17:21.085Z,1008.54
2017-07-29T10:18:31.053Z,1008.3
2017-07-29T10:19:40.408Z,1008.46
2017-07-29T10:20:50.388Z,1008.36
2017-07-29T10:22:00.917Z,1008.34
2017-07-29T10:23:11.210Z,1008.28
2017-07-29T10:24:21.178Z,1008.43
2017-07-29T10:25:31.469Z,1008.34
2017-07-29T10:26:41.447Z,1008.42
2017-07-29T10:27:51.988Z,1008.37
2017-07-29T10:29:01.966Z,1008.31
2017-07-29T10:30:11.943Z,1008.39
2017-07-29T10:31:22.252Z,1008.19
2017-07-29T10:32:32.567Z,1008.41
2017-07-29T10:33:42.780Z,1008.34
2017-07-29T10:34:52.765Z,1008.38
2017-07-29T10:36:02.754Z,1008.42
2017-07-29T10:37:13.066Z,1008.34
2017-07-29T10:38:23.352Z,1008.39
2017-07-29T10:39:33.898Z,1008.4
2017-07-29T10:40:43.881Z,1008.4
2017-07-29T10:41:53.887Z,1008.5
2017-07-29T10:43:04.171Z,1008.27
2017-07-29T10:44:14.457Z,1008.29
2017-07-29T10:45:25.008Z,1008.25
2017-07-29T10:46:35.308Z,1008.32
2017-07-29T10:47:45.597Z,1008.08
2017-07-29T10:48:55.894Z,1008.19
2017-07-29T10:50:05.908Z,1008.23
2017-07-29T10:51:16.448Z,1008.19
2017-07-29T10:52:26.426Z,1008.22
2017-07-29T10:53:36.707Z,1008.26
2017-07-29T10:54:46.692Z,1008.17
2017-07-29T10:55:56.984Z,1008.22
2017-07-29T10:57:07.214Z,1008.14
2017-07-29T10:58:17.531Z,1008.05
2017-07-29T10:59:27.817Z,1008.1
2017-07-29T11:00:38.124Z,1008.05
2017-07-29T11:01:48.126Z,1008.04
2017-07-29T11:02:58.376Z,1008.02
2017-07-29T11:04:08.686Z,1008.14
2017-07-29T11:05:18.988Z,1008.13
2017-07-29T11:06:28.652Z,1008.11
2017-07-29T11:07:38.658Z,1008.15
2017-07-29T11:08:49.207Z,1008.08
2017-07-29T11:09:59.501Z,1008.26
2017-07-29T11:11:09.780Z,1008.23
2017-07-29T11:12:20.065Z,1008.16
2017-07-29T11:13:29.746Z,1008.19
2017-07-29T11:14:40.287Z,1008.13
2017-07-29T11:15:50.297Z,1008.1
2017-07-29T11:17:00.595Z,1008.09
2017-07-29T11:18:10.894Z,1008.2
2017-07-29T11:19:21.195Z,1008.1
2017-07-29T11:20:31.422Z,1008.06
2017-07-29T11:21:41.715Z,1008.03
2017-07-29T11:22:52.000Z,1008.11
2017-07-29T11:24:02.281Z,1008.08
2017-07-29T11:25:12.561Z,1008.01
2017-07-29T11:26:22.781Z,1008.06
2017-07-29T11:27:33.084Z,1007.99
2017-07-29T11:28:43.371Z,1008
2017-07-29T11:29:53.045Z,1008.04
2017-07-29T11:31:03.336Z,1008.04
2017-07-29T11:32:13.559Z,1007.93
2017-07-29T11:33:23.841Z,1008.06
2017-07-29T11:34:33.819Z,1008.24
2017-07-29T11:35:44.113Z,1008.16
2017-07-29T11:36:53.782Z,1008.05
2017-07-29T11:38:04.293Z,1007.99
2017-07-29T11:39:14.587Z,1008.1
2017-07-29T11:40:24.237Z,1008.16
2017-07-29T11:41:34.201Z,1007.91
2017-07-29T11:42:44.495Z,1007.97
2017-07-29T11:43:55.051Z,1008.06
2017-07-29T11:45:04.393Z,1008.04
2017-07-29T11:46:14.357Z,1008.04
2017-07-29T11:47:24.672Z,1008.09
2017-07-29T11:48:34.666Z,1008.07
2017-07-29T11:49:45.208Z,1008.05
2017-07-29T11:50:55.183Z,1008
2017-07-29T11:52:05.478Z,1008.01
2017-07-29T11:53:15.766Z,1007.99
2017-07-29T11:54:26.068Z,1007.96
2017-07-29T11:55:36.612Z,1007.98
2017-07-29T11:56:46.598Z,1007.96
2017-07-29T11:57:56.884Z,1008.07
2017-07-29T11:59:07.204Z,1007.88
2017-07-29T12:00:17.488Z,1008.03
2017-07-29T12:01:28.028Z,1008.06
2017-07-29T12:02:38.310Z,1008.07
2017-07-29T12:03:48.583Z,1007.96
2017-07-29T12:04:58.868Z,1007.99
2017-07-29T12:06:09.159Z,1007.98
2017-07-29T12:07:19.757Z,1008.09
2017-07-29T12:08:29.731Z,1008.01
2017-07-29T12:09:40.031Z,1008.12
2017-07-29T12:10:50.324Z,1008.03
2017-07-29T12:12:00.297Z,1008.04
2017-07-29T12:13:10.217Z,1008.01
2017-07-29T12:14:20.201Z,1008.03
2017-07-29T12:15:30.482Z,1008.08
2017-07-29T12:16:40.790Z,1008.01
2017-07-29T12:17:51.081Z,1007.99
2017-07-29T12:19:01.626Z,1007.97
2017-07-29T12:20:11.917Z,1008.06
2017-07-29T12:21:21.900Z,1008.01
2017-07-29T12:22:32.195Z,1008.02
2017-07-29T12:23:42.490Z,1008.04
2017-07-29T12:24:53.029Z,1007.66
2017-07-29T12:26:03.007Z,1007.99
2017-07-29T12:27:13.307Z,1007.96
2017-07-29T12:28:23.594Z,1008.01
2017-07-29T12:29:33.568Z,1007.94
2017-07-29T12:30:43.802Z,1008.01
2017-07-29T12:31:53.773Z,1007.96
2017-07-29T12:33:03.771Z,1008.07
2017-07-29T12:34:13.744Z,1007.94
2017-07-29T12:35:24.047Z,1007.9
2017-07-29T12:36:33.970Z,1007.9
2017-07-29T12:37:44.261Z,1007.85
2017-07-29T12:38:54.550Z,1007.89
2017-07-29T12:40:04.860Z,1007.85
2017-07-29T12:41:15.174Z,1007.85
2017-07-29T12:42:25.080Z,1007.81
2017-07-29T12:43:35.372Z,1007.89
2017-07-29T12:44:45.699Z,1007.87
2017-07-29T12:45:55.673Z,1007.81
2017-07-29T12:47:05.970Z,1007.67
2017-07-29T12:48:16.503Z,1007.83
2017-07-29T12:49:26.752Z,1007.81
2017-07-29T12:50:37.066Z,1007.83
2017-07-29T12:51:47.045Z,1007.88
2017-07-29T12:52:57.344Z,1007.85
2017-07-29T12:54:07.595Z,1007.85
2017-07-29T12:55:17.907Z,1007.85
2017-07-29T12:56:28.208Z,1007.99
2017-07-29T12:57:38.504Z,1007.77
2017-07-29T12:58:48.496Z,1007.88
2017-07-29T12:59:59.038Z,1007.96
2017-07-29T13:01:09.025Z,1007.83
2017-07-29T13:02:19.323Z,1007.84
2017-07-29T13:03:29.296Z,1007.92
2017-07-29T13:04:39.601Z,1007.84
2017-07-29T13:05:50.145Z,1007.79
2017-07-29T13:07:00.434Z,1007.82
2017-07-29T13:08:10.429Z,1007.84
2017-07-29T13:09:20.700Z,1008.04
2017-07-29T13:10:30.680Z,1007.76
2017-07-29T13:11:40.908Z,1007.92
2017-07-29T13:12:50.584Z,1007.86
2017-07-29T13:14:00.577Z,1007.87
2017-07-29T13:15:10.241Z,1007.94
2017-07-29T13:16:20.538Z,1007.86
2017-07-29T13:17:31.098Z,1008.01
2017-07-29T13:18:41.398Z,1007.85
2017-07-29T13:19:51.062Z,1008.03
2017-07-29T13:21:01.042Z,1008.05
2017-07-29T13:22:10.999Z,1007.97
2017-07-29T13:23:21.549Z,1008.19
2017-07-29T13:24:31.830Z,1007.9
2017-07-29T13:25:42.113Z,1007.76
2017-07-29T13:26:52.395Z,1008
2017-07-29T13:28:02.378Z,1007.92
2017-07-29T13:29:12.618Z,1008.02
2017-07-29T13:30:22.626Z,1007.96
2017-07-29T13:31:32.898Z,1007.94
2017-07-29T13:32:42.890Z,1007.91
2017-07-29T13:33:53.211Z,1007.97
2017-07-29T13:35:03.757Z,1008
2017-07-29T13:36:13.756Z,1008.01
2017-07-29T13:37:24.055Z,1007.9
2017-07-29T13:38:34.029Z,1007.93
2017-07-29T13:39:44.011Z,1008.01
2017-07-29T13:40:54.243Z,1008.06
2017-07-29T13:42:04.547Z,1008.06
2017-07-29T13:43:14.217Z,1007.89
2017-07-29T13:44:24.523Z,1007.8
2017-07-29T13:45:34.196Z,1007.86
2017-07-29T13:46:44.740Z,1007.87
2017-07-29T13:47:54.089Z,1007.85
2017-07-29T13:49:04.069Z,1007.83
2017-07-29T13:50:14.066Z,1007.87
2017-07-29T13:51:23.436Z,1007.83
2017-07-29T13:52:33.671Z,1007.92
2017-07-29T13:53:43.951Z,1007.92
2017-07-29T13:54:53.947Z,1007.93
2017-07-29T13:56:04.229Z,1007.88
2017-07-29T13:57:14.234Z,1007.99
2017-07-29T13:58:24.792Z,1007.91
2017-07-29T13:59:35.082Z,1007.88
2017-07-29T14:00:45.067Z,1007.98
2017-07-29T14:01:55.352Z,1007.87
2017-07-29T14:03:05.653Z,1007.79
2017-07-29T14:04:16.272Z,1007.87
2017-07-29T14:05:25.936Z,1007.92
2017-07-29T14:06:36.226Z,1007.94
2017-07-29T14:07:46.196Z,1007.81
2017-07-29T14:08:56.172Z,1007.81
2017-07-29T14:10:06.717Z,1007.86
2017-07-29T14:11:17.011Z,1007.78
2017-07-29T14:12:26.991Z,1007.76